Terminal Aerodrome Forecast
Issued by NWS

Home | Current Version | Previous Version | Text Only | Print | Product List | Glossary On
Versions: 1 2 3 4 5 6 7 8 9 10 11 12 13 14 15 16 17 18 19 20 21 22 23 24 25 26 27 28 29 30 31
000
FTUS45 KREV 270650 AAA
TAFRNO
TAF AMD
KRNO 270650Z 2707/2806 24010KT P6SM VCSH BKN040 OVC060
     FM271000 27010KT 3SM -SHSN BKN025 OVC035
     FM271500 30011KT P6SM SCT050 BKN200=

USA.gov is the U.S. government's official web portal to all federal, state and local government web resources and services.